createdAt,value
2018-09-14T00:01:44.747Z,78.75
2018-09-14T00:04:12.460Z,78.99
2018-09-14T00:06:40.163Z,78.63
2018-09-14T00:09:10.050Z,78.57
2018-09-14T00:11:37.819Z,78.28
2018-09-14T00:14:05.579Z,78.15
2018-09-14T00:16:33.233Z,78.21
2018-09-14T00:19:00.948Z,78.19
2018-09-14T00:21:28.629Z,79.21
2018-09-14T00:23:56.294Z,79.58
2018-09-14T00:26:23.911Z,80.28
2018-09-14T00:28:51.569Z,79.51
2018-09-14T00:31:19.218Z,78.44
2018-09-14T00:33:46.898Z,78.23
2018-09-14T00:36:14.553Z,77.56
2018-09-14T00:38:42.190Z,78.17
2018-09-14T00:41:09.881Z,77.24
2018-09-14T00:43:37.554Z,77.85
2018-09-14T00:46:05.245Z,78.10
2018-09-14T00:48:32.864Z,77.35
2018-09-14T00:51:00.546Z,76.57
2018-09-14T00:53:28.210Z,77.05
2018-09-14T00:55:55.905Z,77.30
2018-09-14T00:58:23.515Z,76.67
2018-09-14T01:00:51.209Z,76.49
2018-09-14T01:03:19.337Z,77.80
2018-09-14T01:05:47.109Z,77.31
2018-09-14T01:08:14.768Z,77.45
2018-09-14T01:10:42.625Z,77.17
2018-09-14T01:13:10.316Z,76.58
2018-09-14T01:15:37.997Z,76.12
2018-09-14T01:18:05.761Z,77.37
2018-09-14T01:20:33.510Z,76.94
2018-09-14T01:23:01.135Z,77.90
2018-09-14T01:25:28.723Z,77.71
2018-09-14T01:27:56.382Z,76.41
2018-09-14T01:30:24.105Z,76.64
2018-09-14T01:32:51.922Z,76.35
2018-09-14T01:35:25.455Z,76.20
2018-09-14T01:37:53.037Z,76.02
2018-09-14T01:40:20.700Z,76.65
2018-09-14T01:42:48.641Z,76.01
2018-09-14T01:45:16.277Z,75.99
2018-09-14T01:47:43.913Z,76.57
2018-09-14T01:50:11.523Z,76.37
2018-09-14T01:52:39.161Z,76.59
2018-09-14T01:55:06.884Z,76.55
2018-09-14T01:57:34.550Z,75.78
2018-09-14T02:00:02.228Z,76.00
2018-09-14T02:02:29.849Z,77.64
2018-09-14T02:04:57.549Z,78.92
2018-09-14T02:07:25.251Z,78.69
2018-09-14T02:09:52.954Z,78.37
2018-09-14T02:12:20.594Z,78.24
2018-09-14T02:14:48.208Z,78.24
2018-09-14T02:17:15.848Z,77.59
2018-09-14T02:19:43.544Z,77.32
2018-09-14T02:22:11.554Z,77.86
2018-09-14T02:24:39.168Z,77.75
2018-09-14T02:27:07.106Z,78.04
2018-09-14T02:29:34.741Z,78.08
2018-09-14T02:32:02.751Z,78.22
2018-09-14T02:34:30.408Z,77.94
2018-09-14T02:36:58.084Z,79.59
2018-09-14T02:39:25.817Z,79.71
2018-09-14T02:41:53.723Z,77.81
2018-09-14T02:44:21.384Z,78.80
2018-09-14T02:46:49.036Z,77.77
2018-09-14T02:49:16.664Z,77.70
2018-09-14T02:51:44.607Z,78.74
2018-09-14T02:54:12.317Z,77.47
2018-09-14T02:56:39.996Z,77.23
2018-09-14T02:59:07.693Z,77.72
2018-09-14T03:01:35.390Z,77.08
2018-09-14T03:04:03.156Z,77.59
2018-09-14T03:06:30.897Z,77.66
2018-09-14T03:08:58.521Z,77.47
2018-09-14T03:11:26.171Z,78.05
2018-09-14T03:13:53.823Z,78.70
2018-09-14T03:16:21.501Z,77.48
2018-09-14T03:18:49.174Z,76.72
2018-09-14T03:21:16.904Z,76.42
2018-09-14T03:23:44.813Z,77.83
2018-09-14T03:26:12.905Z,77.54
2018-09-14T03:28:40.773Z,77.53
2018-09-14T03:31:08.399Z,76.64
2018-09-14T03:33:36.130Z,77.42
2018-09-14T03:36:03.844Z,77.13
2018-09-14T03:38:31.561Z,77.66
2018-09-14T03:40:59.182Z,77.85
2018-09-14T03:43:26.946Z,77.22
2018-09-14T03:45:54.644Z,76.69
2018-09-14T03:48:22.306Z,77.56
2018-09-14T03:50:50.418Z,77.43
2018-09-14T03:53:18.078Z,76.88
2018-09-14T03:55:45.717Z,77.20
2018-09-14T03:58:13.442Z,77.54
2018-09-14T04:00:41.072Z,78.35
2018-09-14T04:03:08.864Z,78.70
2018-09-14T04:05:36.522Z,77.34
2018-09-14T04:08:04.212Z,78.37
2018-09-14T04:10:31.998Z,78.00
2018-09-14T04:12:59.704Z,77.42
2018-09-14T04:15:27.388Z,77.34
2018-09-14T04:17:55.145Z,77.84
2018-09-14T04:20:22.885Z,77.90
2018-09-14T04:22:50.540Z,77.39
2018-09-14T04:25:18.228Z,78.12
2018-09-14T04:27:45.810Z,77.39
2018-09-14T04:30:13.660Z,77.51
2018-09-14T04:32:41.520Z,77.45
2018-09-14T04:35:09.232Z,77.23
2018-09-14T04:37:36.934Z,78.39
2018-09-14T04:40:04.794Z,78.93
2018-09-14T04:42:32.568Z,79.43
2018-09-14T04:45:00.379Z,78.89
2018-09-14T04:47:28.015Z,79.63
2018-09-14T04:49:55.775Z,79.70
2018-09-14T04:52:23.371Z,79.36
2018-09-14T04:54:51.259Z,80.28
2018-09-14T04:57:19.148Z,79.76
2018-09-14T04:59:46.833Z,79.51
2018-09-14T05:02:14.545Z,80.04
2018-09-14T05:04:42.371Z,80.21
2018-09-14T05:07:10.108Z,79.85
2018-09-14T05:09:37.781Z,80.47
2018-09-14T05:12:05.787Z,80.98
2018-09-14T05:14:33.443Z,80.13
2018-09-14T05:17:01.149Z,80.56
2018-09-14T05:19:28.897Z,80.35
2018-09-14T05:21:56.632Z,79.72
2018-09-14T05:24:24.347Z,78.85
2018-09-14T05:26:52.030Z,78.49
2018-09-14T05:29:19.813Z,78.43
2018-09-14T05:31:47.506Z,79.00
2018-09-14T05:34:15.173Z,79.53
2018-09-14T05:36:42.820Z,79.71
2018-09-14T05:39:10.478Z,79.08
2018-09-14T05:41:38.390Z,78.60
2018-09-14T05:44:06.210Z,78.97
2018-09-14T05:46:33.783Z,79.11
2018-09-14T05:49:01.500Z,78.46
2018-09-14T05:51:29.184Z,79.97
2018-09-14T05:53:56.930Z,79.93
2018-09-14T05:56:25.016Z,79.72
2018-09-14T05:58:52.726Z,79.25
2018-09-14T06:01:20.406Z,78.76
2018-09-14T06:03:48.070Z,79.18
2018-09-14T06:06:15.760Z,80.32
2018-09-14T06:08:43.440Z,80.58
2018-09-14T06:11:11.233Z,81.39
2018-09-14T06:13:38.976Z,80.08
2018-09-14T06:16:06.738Z,79.78
2018-09-14T06:18:34.394Z,80.76
2018-09-14T06:21:02.220Z,80.07
2018-09-14T06:23:30.028Z,79.67
2018-09-14T06:25:57.659Z,78.25
2018-09-14T06:28:25.297Z,77.69
2018-09-14T06:30:52.991Z,77.66
2018-09-14T06:33:20.696Z,77.38
2018-09-14T06:35:48.507Z,77.26
2018-09-14T06:38:16.178Z,76.18
2018-09-14T06:40:43.969Z,76.02
2018-09-14T06:43:12.553Z,77.16
2018-09-14T06:45:40.438Z,76.52
2018-09-14T06:48:08.082Z,76.50
2018-09-14T06:50:35.749Z,76.77
2018-09-14T06:53:03.536Z,76.61
2018-09-14T06:55:31.198Z,76.35
2018-09-14T06:57:58.915Z,76.30
2018-09-14T07:00:26.965Z,75.92
2018-09-14T07:02:54.545Z,75.69
2018-09-14T07:05:22.841Z,75.72
2018-09-14T07:07:50.672Z,76.58
2018-09-14T07:10:18.397Z,76.04
2018-09-14T07:12:46.035Z,75.55
2018-09-14T07:15:13.702Z,75.55
2018-09-14T07:17:41.428Z,76.72
2018-09-14T07:20:09.287Z,76.52
2018-09-14T07:22:36.990Z,77.00
2018-09-14T07:25:04.787Z,76.14
2018-09-14T07:27:33.089Z,75.41
2018-09-14T07:30:00.761Z,74.84
2018-09-14T07:32:28.458Z,74.20
2018-09-14T07:34:56.363Z,73.88
2018-09-14T07:37:24.002Z,72.92
2018-09-14T07:39:51.690Z,73.11
2018-09-14T07:42:19.476Z,74.00
2018-09-14T07:44:47.180Z,73.02
2018-09-14T07:47:14.854Z,74.36
2018-09-14T07:49:42.702Z,72.96
2018-09-14T07:52:10.312Z,73.00
2018-09-14T07:54:38.044Z,73.52
2018-09-14T07:57:05.767Z,73.25
2018-09-14T07:59:33.509Z,72.97
2018-09-14T08:02:01.243Z,74.82
2018-09-14T08:04:28.901Z,74.08
2018-09-14T08:06:56.585Z,74.91
2018-09-14T08:09:24.364Z,75.96
2018-09-14T08:11:52.050Z,76.05
2018-09-14T08:14:19.837Z,76.39
2018-09-14T08:16:47.520Z,77.23
2018-09-14T08:19:15.213Z,77.11
2018-09-14T08:21:43.062Z,76.17
2018-09-14T08:24:10.629Z,75.73
2018-09-14T08:26:38.309Z,76.06
2018-09-14T08:29:06.119Z,76.15
2018-09-14T08:31:33.790Z,77.01
2018-09-14T08:34:01.535Z,76.78
2018-09-14T08:36:29.209Z,76.85
2018-09-14T08:38:56.893Z,75.43
2018-09-14T08:41:24.650Z,74.96
2018-09-14T08:43:52.475Z,77.65
2018-09-14T08:46:20.191Z,76.23
2018-09-14T08:48:47.873Z,75.83
2018-09-14T08:51:15.543Z,74.89
2018-09-14T08:53:43.343Z,76.05
2018-09-14T08:56:11.098Z,76.62
2018-09-14T08:58:38.780Z,76.18
2018-09-14T09:01:06.645Z,76.00
2018-09-14T09:03:34.329Z,75.03
2018-09-14T09:06:02.169Z,74.15
2018-09-14T09:08:29.998Z,72.84
2018-09-14T09:10:57.710Z,73.01
2018-09-14T09:13:25.472Z,71.57
2018-09-14T09:15:53.088Z,72.04
2018-09-14T09:18:20.779Z,71.26
2018-09-14T09:20:48.381Z,71.31
2018-09-14T09:23:16.077Z,72.86
2018-09-14T09:25:43.725Z,74.77
2018-09-14T09:28:11.375Z,74.04
2018-09-14T09:30:38.998Z,72.99
2018-09-14T09:33:06.675Z,72.93
2018-09-14T09:35:34.856Z,72.18
2018-09-14T09:38:02.571Z,71.05
2018-09-14T09:40:30.186Z,69.78
2018-09-14T09:42:57.949Z,69.59
2018-09-14T09:45:25.613Z,68.78
2018-09-14T09:47:53.297Z,68.00
2018-09-14T09:50:21.043Z,68.41
2018-09-14T09:52:48.666Z,67.87
2018-09-14T09:55:16.417Z,67.13
2018-09-14T09:57:44.192Z,65.30
2018-09-14T10:00:17.581Z,65.09
2018-09-14T10:03:01.671Z,63.34
2018-09-14T10:05:34.996Z,62.59
2018-09-14T10:08:02.728Z,60.36
2018-09-14T10:10:30.531Z,60.30
2018-09-14T10:12:58.262Z,58.24
2018-09-14T10:15:25.953Z,57.66
2018-09-14T10:17:53.649Z,57.69
2018-09-14T10:20:21.370Z,58.61
2018-09-14T10:22:49.031Z,58.02
2018-09-14T10:25:18.484Z,59.24
2018-09-14T10:27:46.220Z,59.45
2018-09-14T10:30:14.008Z,58.28
2018-09-14T10:32:41.681Z,57.46
2018-09-14T10:35:09.565Z,60.81
2018-09-14T10:37:37.300Z,58.33
2018-09-14T10:40:05.087Z,58.27
2018-09-14T10:42:32.873Z,59.23
2018-09-14T10:45:00.619Z,58.17
2018-09-14T10:47:28.393Z,55.04
2018-09-14T10:49:56.687Z,52.91
2018-09-14T10:52:25.438Z,53.98
2018-09-14T10:54:53.316Z,51.59
2018-09-14T10:57:20.981Z,51.29
2018-09-14T10:59:48.951Z,50.15
2018-09-14T11:02:16.694Z,50.40
2018-09-14T11:04:45.776Z,52.23
2018-09-14T11:07:13.551Z,54.27
2018-09-14T11:09:41.348Z,56.22
2018-09-14T11:12:09.337Z,55.28
2018-09-14T11:14:37.235Z,54.08
2018-09-14T11:17:04.961Z,53.18
2018-09-14T11:19:33.655Z,51.43
2018-09-14T11:22:01.368Z,51.04
2018-09-14T11:24:29.184Z,51.54
2018-09-14T11:26:56.880Z,52.08
2018-09-14T11:29:25.997Z,52.36
2018-09-14T11:31:54.003Z,50.46
2018-09-14T11:34:21.717Z,50.05
2018-09-14T11:36:49.365Z,50.63
2018-09-14T11:39:17.012Z,51.21
2018-09-14T11:41:44.637Z,50.93
2018-09-14T11:44:12.299Z,51.31
2018-09-14T11:46:39.985Z,51.27
2018-09-14T11:49:07.611Z,51.14
2018-09-14T11:51:36.315Z,50.56
2018-09-14T11:54:05.734Z,51.35
2018-09-14T11:56:33.742Z,51.05
2018-09-14T11:59:01.544Z,52.00
2018-09-14T12:01:29.371Z,52.20
2018-09-14T12:03:57.021Z,53.09
2018-09-14T12:06:24.754Z,53.15
2018-09-14T12:08:52.516Z,53.55
2018-09-14T12:11:20.215Z,53.98
2018-09-14T12:13:47.867Z,53.36
2018-09-14T12:16:15.765Z,52.75
2018-09-14T12:18:43.501Z,52.23
2018-09-14T12:21:11.269Z,52.75
2018-09-14T12:23:38.919Z,53.09
2018-09-14T12:26:06.781Z,54.59
2018-09-14T12:28:34.827Z,55.47
2018-09-14T12:31:02.553Z,55.30
2018-09-14T12:33:30.739Z,53.57
2018-09-14T12:35:58.499Z,55.28
2018-09-14T12:38:26.223Z,54.71
2018-09-14T12:40:53.957Z,54.68
2018-09-14T12:43:21.624Z,55.32
2018-09-14T12:45:49.429Z,54.77
2018-09-14T12:48:17.255Z,54.43
2018-09-14T12:50:45.125Z,55.85
2018-09-14T12:53:12.867Z,54.74
2018-09-14T12:55:40.614Z,54.29
2018-09-14T12:58:08.448Z,54.80
2018-09-14T13:00:36.416Z,54.85
2018-09-14T13:03:05.142Z,53.80
2018-09-14T13:05:32.804Z,55.28
2018-09-14T13:08:00.474Z,55.62
2018-09-14T13:10:28.205Z,57.53
2018-09-14T13:12:55.962Z,57.02
2018-09-14T13:15:24.230Z,56.99
2018-09-14T13:17:51.966Z,58.97
2018-09-14T13:20:19.646Z,58.56
2018-09-14T13:22:47.466Z,58.82
2018-09-14T13:25:15.229Z,58.18
2018-09-14T13:27:42.998Z,56.81
2018-09-14T13:30:10.774Z,56.15
2018-09-14T13:32:40.424Z,54.50
2018-09-14T13:35:08.193Z,54.03
2018-09-14T13:37:35.904Z,53.58
2018-09-14T13:40:04.270Z,53.60
2018-09-14T13:42:32.085Z,52.38
2018-09-14T13:44:59.830Z,51.73
2018-09-14T13:47:27.485Z,51.37
2018-09-14T13:49:55.257Z,50.92
2018-09-14T13:52:23.079Z,49.63
2018-09-14T13:54:50.844Z,49.01
2018-09-14T13:57:18.642Z,47.24
2018-09-14T13:59:46.383Z,48.05
2018-09-14T14:02:14.068Z,48.18
2018-09-14T14:04:41.777Z,48.09
2018-09-14T14:07:09.521Z,46.23
2018-09-14T14:09:37.228Z,46.09
2018-09-14T14:12:05.024Z,45.15
2018-09-14T14:14:32.731Z,45.62
2018-09-14T14:17:00.540Z,44.60
2018-09-14T14:19:28.193Z,44.56
2018-09-14T14:21:58.551Z,45.24
2018-09-14T14:24:26.629Z,43.22
2018-09-14T14:26:54.426Z,40.21
2018-09-14T14:29:22.114Z,36.01
2018-09-14T14:31:49.852Z,33.00
2018-09-14T14:34:17.595Z,28.64
2018-09-14T14:36:45.221Z,22.84
2018-09-14T14:39:12.955Z,19.23
2018-09-14T14:41:40.825Z,16.98
2018-09-14T14:44:08.801Z,15.48
2018-09-14T14:46:36.438Z,16.36
2018-09-14T14:49:04.145Z,15.42
2018-09-14T14:51:31.887Z,14.74
2018-09-14T14:53:59.604Z,14.31
2018-09-14T14:56:27.287Z,15.52
2018-09-14T14:58:55.080Z,18.00
2018-09-14T15:01:22.830Z,21.51
2018-09-14T15:03:50.510Z,23.06
2018-09-14T15:06:19.170Z,22.93
2018-09-14T15:08:46.810Z,23.71
2018-09-14T15:11:14.399Z,25.35
2018-09-14T15:13:42.128Z,26.00
2018-09-14T15:16:09.950Z,27.23
2018-09-14T15:18:37.680Z,28.72
2018-09-14T15:21:05.403Z,31.46
2018-09-14T15:23:33.164Z,33.25
2018-09-14T15:26:00.954Z,36.51
2018-09-14T15:28:28.945Z,38.61
2018-09-14T15:30:56.697Z,41.15
2018-09-14T15:33:24.618Z,43.42
2018-09-14T15:35:52.422Z,44.83
2018-09-14T15:38:20.366Z,45.66
2018-09-14T15:40:48.063Z,46.11
2018-09-14T15:43:15.838Z,46.55
2018-09-14T15:45:43.672Z,47.25
2018-09-14T15:48:11.329Z,47.88
2018-09-14T15:50:39.420Z,47.43
2018-09-14T15:53:07.185Z,49.14
2018-09-14T15:55:35.022Z,49.12
2018-09-14T15:58:02.900Z,49.59
2018-09-14T16:00:30.727Z,50.22
2018-09-14T16:02:58.448Z,50.70
2018-09-14T16:05:26.307Z,50.19
2018-09-14T16:07:54.030Z,51.63
2018-09-14T16:10:21.747Z,53.36
2018-09-14T16:12:49.465Z,53.50
2018-09-14T16:15:17.287Z,53.93
2018-09-14T16:17:45.284Z,54.52
2018-09-14T16:20:12.983Z,55.23
2018-09-14T16:22:40.689Z,56.07
2018-09-14T16:25:08.437Z,56.36
2018-09-14T16:27:36.514Z,57.10
2018-09-14T16:30:05.224Z,57.03
2018-09-14T16:32:33.032Z,56.28
2018-09-14T16:35:00.657Z,55.25
2018-09-14T16:37:28.387Z,55.55
2018-09-14T16:39:56.080Z,55.65
2018-09-14T16:42:23.765Z,55.45
2018-09-14T16:44:51.479Z,56.24
2018-09-14T16:47:19.240Z,55.20
2018-09-14T16:49:46.869Z,55.10
2018-09-14T16:52:14.562Z,56.23
2018-09-14T16:54:42.268Z,56.73
2018-09-14T16:57:09.962Z,58.23
2018-09-14T16:59:37.604Z,58.79
2018-09-14T17:02:05.415Z,59.37
2018-09-14T17:04:33.021Z,59.95
2018-09-14T17:07:00.700Z,60.11
2018-09-14T17:09:28.501Z,60.57
2018-09-14T17:11:56.347Z,61.11
2018-09-14T17:14:24.110Z,61.26
2018-09-14T17:16:51.848Z,61.21
2018-09-14T17:19:19.596Z,61.78
2018-09-14T17:21:47.316Z,62.22
2018-09-14T17:24:15.037Z,62.25
2018-09-14T17:26:42.786Z,62.63
2018-09-14T17:29:10.537Z,63.41
2018-09-14T17:31:38.294Z,63.87
2018-09-14T17:34:05.978Z,63.22
2018-09-14T17:36:33.639Z,63.98
2018-09-14T17:39:01.359Z,64.27
2018-09-14T17:41:29.124Z,64.47
2018-09-14T17:43:56.784Z,64.81
2018-09-14T17:46:24.422Z,65.12
2018-09-14T17:48:52.106Z,66.07
2018-09-14T17:51:19.833Z,66.17
2018-09-14T17:53:47.436Z,66.64
2018-09-14T17:56:15.111Z,67.44
2018-09-14T17:58:42.791Z,67.48
2018-09-14T18:01:10.456Z,68.64
2018-09-14T18:03:38.123Z,68.99
2018-09-14T18:06:05.975Z,69.38
2018-09-14T18:08:33.813Z,69.36
2018-09-14T18:11:01.669Z,70.00
2018-09-14T18:13:29.374Z,70.55
2018-09-14T18:15:57.128Z,70.90
2018-09-14T18:18:24.780Z,71.45
2018-09-14T18:20:52.632Z,71.80
2018-09-14T18:23:20.290Z,72.11
2018-09-14T18:25:48.042Z,72.31
2018-09-14T18:28:15.713Z,72.01
2018-09-14T18:30:43.506Z,72.40
2018-09-14T18:33:11.237Z,72.81
2018-09-14T18:35:38.959Z,72.56
2018-09-14T18:38:06.779Z,73.13
2018-09-14T18:40:34.495Z,73.15
2018-09-14T18:43:02.186Z,73.56
2018-09-14T18:45:29.858Z,73.27
2018-09-14T18:47:57.468Z,73.54
2018-09-14T18:50:25.280Z,73.53
2018-09-14T18:52:52.965Z,74.17
2018-09-14T18:55:20.712Z,73.88
2018-09-14T18:57:48.526Z,73.40
2018-09-14T19:00:16.321Z,74.02
2018-09-14T19:02:44.249Z,74.18
2018-09-14T19:05:12.124Z,74.74
2018-09-14T19:07:40.124Z,74.07
2018-09-14T19:10:07.885Z,74.57
2018-09-14T19:12:35.778Z,74.35
2018-09-14T19:15:03.740Z,74.43
2018-09-14T19:17:31.433Z,75.24
2018-09-14T19:19:59.462Z,75.58
2018-09-14T19:22:28.277Z,74.86
2018-09-14T19:24:56.324Z,74.32
2018-09-14T19:27:24.133Z,74.56
2018-09-14T19:29:51.882Z,73.92
2018-09-14T19:32:19.526Z,74.08
2018-09-14T19:34:47.235Z,73.70
2018-09-14T19:37:14.987Z,73.14
2018-09-14T19:39:44.835Z,72.26
2018-09-14T19:42:12.523Z,72.09
2018-09-14T19:44:40.258Z,71.93
2018-09-14T19:47:07.998Z,71.78
2018-09-14T19:49:35.718Z,71.77
2018-09-14T19:52:03.467Z,72.27
2018-09-14T19:54:31.233Z,72.92
2018-09-14T19:56:58.907Z,72.72
2018-09-14T19:59:26.633Z,73.08
2018-09-14T20:01:54.461Z,73.08
2018-09-14T20:04:22.233Z,73.54
2018-09-14T20:06:55.290Z,73.96
2018-09-14T20:09:22.977Z,74.40
2018-09-14T20:11:51.169Z,75.00
2018-09-14T20:14:18.935Z,75.18
2018-09-14T20:16:46.737Z,75.63
2018-09-14T20:19:14.433Z,75.26
2018-09-14T20:21:42.154Z,76.01
2018-09-14T20:24:09.863Z,76.21
2018-09-14T20:26:37.853Z,76.92
2018-09-14T20:29:05.599Z,76.68
2018-09-14T20:31:33.406Z,77.65
2018-09-14T20:34:01.069Z,77.16
2018-09-14T20:36:29.553Z,77.36
2018-09-14T20:38:57.339Z,77.42
2018-09-14T20:41:25.038Z,78.04
2018-09-14T20:43:53.005Z,78.31
2018-09-14T20:46:20.769Z,78.49
2018-09-14T20:48:48.597Z,78.21
2018-09-14T20:51:16.353Z,78.95
2018-09-14T20:53:43.993Z,78.97
2018-09-14T20:56:11.645Z,79.72
2018-09-14T20:58:39.349Z,79.93
2018-09-14T21:01:06.977Z,79.60
2018-09-14T21:03:34.664Z,79.54
2018-09-14T21:06:02.437Z,79.34
2018-09-14T21:08:30.118Z,79.00
2018-09-14T21:10:57.777Z,79.39
2018-09-14T21:13:25.590Z,79.62
2018-09-14T21:15:53.222Z,78.66
2018-09-14T21:18:20.822Z,78.54
2018-09-14T21:20:48.498Z,77.89
2018-09-14T21:23:16.154Z,77.09
2018-09-14T21:25:43.818Z,77.09
2018-09-14T21:28:11.426Z,77.72
2018-09-14T21:30:39.582Z,77.63
2018-09-14T21:33:07.211Z,77.03
2018-09-14T21:35:34.890Z,78.34
2018-09-14T21:38:02.508Z,78.00
2018-09-14T21:40:30.240Z,79.06
2018-09-14T21:43:04.580Z,78.99
2018-09-14T21:45:32.160Z,78.84
2018-09-14T21:47:59.772Z,78.29
2018-09-14T21:50:27.434Z,78.09
2018-09-14T21:52:55.057Z,77.97
2018-09-14T21:55:22.682Z,78.40
2018-09-14T21:57:50.338Z,78.21
2018-09-14T22:00:23.746Z,77.33
2018-09-14T22:02:51.373Z,78.18
2018-09-14T22:05:19.067Z,77.13
2018-09-14T22:07:46.717Z,77.71
2018-09-14T22:10:14.371Z,78.13
2018-09-14T22:12:41.995Z,78.46
2018-09-14T22:15:09.655Z,78.15
2018-09-14T22:17:38.074Z,78.15
2018-09-14T22:20:06.268Z,78.32
2018-09-14T22:22:33.949Z,78.13
2018-09-14T22:25:01.554Z,77.83
2018-09-14T22:27:29.172Z,78.06
2018-09-14T22:29:57.865Z,77.46
2018-09-14T22:32:25.575Z,77.10
2018-09-14T22:34:53.274Z,77.25
2018-09-14T22:37:20.919Z,76.51
2018-09-14T22:39:48.613Z,76.27
2018-09-14T22:42:16.279Z,75.76
2018-09-14T22:44:44.028Z,75.86
2018-09-14T22:47:11.712Z,75.40
2018-09-14T22:49:39.937Z,75.41
2018-09-14T22:52:07.799Z,75.40
2018-09-14T22:54:35.421Z,75.66
2018-09-14T22:57:03.064Z,75.29
2018-09-14T22:59:30.624Z,74.51
2018-09-14T23:01:58.198Z,74.56
2018-09-14T23:04:25.836Z,74.05
2018-09-14T23:06:53.458Z,72.44
2018-09-14T23:09:21.549Z,72.24
2018-09-14T23:11:49.085Z,72.23
2018-09-14T23:14:16.756Z,71.71
2018-09-14T23:16:44.385Z,71.81
2018-09-14T23:19:11.993Z,72.43
2018-09-14T23:21:39.789Z,72.12
2018-09-14T23:24:07.527Z,72.16
2018-09-14T23:26:35.166Z,71.64
2018-09-14T23:29:02.875Z,71.22
2018-09-14T23:31:30.519Z,70.88
2018-09-14T23:33:58.275Z,71.12
2018-09-14T23:36:26.670Z,70.93
2018-09-14T23:38:54.340Z,71.27
2018-09-14T23:41:21.995Z,70.75
2018-09-14T23:43:50.274Z,71.69
2018-09-14T23:46:17.936Z,72.03
2018-09-14T23:48:46.590Z,72.10
2018-09-14T23:51:14.216Z,71.65
2018-09-14T23:53:41.866Z,72.29
2018-09-14T23:56:09.568Z,71.60
2018-09-14T23:58:37.414Z,71.56
